Blue Grass Airport Lexington US
ICAO: KLEX
IATA: LEX
Category: Large
Scheduled Services: Yes

Elevation: 979 ft
TransAlt. 18000 ft.

Airport Communications:
LEXINGTON APP/DEP:120.15
ATIS:126.3
CLNC DEL:132.35
GND:121.9
LEXINGTON TWR:119.1
UNICOM:122.95

KLEX Zoom In..

If you have problems with the map follow the link
https://www.worldairports.se/pages/airport.php?
ICAO=KLEX

Runways:

(A) RW 04 length 7004 ft width 150 ft
ILS 110.10 / hdg 46

(B) RW 09 length 4000 ft width 75 ft
---- / hdg 87

(C) RW 22 length 7004 ft width 150 ft
ILS 111.75 / hdg 226

(D) RW 27 length 4000 ft width 75 ft
---- / hdg 267

Location; KLEX
Day. 14 / Time. 20.54 Zulu
* Altimeter: 30.03
* Temperature: 11° c. 51.8°f.
* Wind from: 070° Speed 09 kn.
Dewpoint: 08° c.
Visibility: 10 Statute Miles.
Clouds: Scattered 5000 ft.
Clouds: Broken 1000 ft.
Clouds: Overcast 11000 ft.
Conditions: Light Rain.

KLEX 142054Z 07009KT 10SM -RA SCT050 BKN100 OVC110 11/08 A3003 RMK AO2 SLP171 P0002 60005 T01060078 56009


Wind From 070°
Speed 09 kn.

 
 
jpsmedia.com for Web Design worldairports.se 2018   terms of use